createdAt,value
2022-12-20T00:01:35.059Z,45.77
2022-12-20T00:04:05.577Z,44.93
2022-12-20T00:06:36.586Z,44.87
2022-12-20T00:09:06.952Z,46.90
2022-12-20T00:11:34.929Z,46.13
2022-12-20T00:14:02.608Z,47.30
2022-12-20T00:16:31.348Z,44.20
2022-12-20T00:19:00.702Z,46.27
2022-12-20T00:21:29.405Z,43.20
2022-12-20T00:23:59.123Z,44.97
2022-12-20T00:26:28.797Z,44.63
2022-12-20T00:28:56.794Z,43.57
2022-12-20T00:31:26.754Z,44.20
2022-12-20T00:33:56.024Z,42.90
2022-12-20T00:36:25.781Z,43.47
2022-12-20T00:38:54.925Z,44.77
2022-12-20T00:41:25.572Z,43.20
2022-12-20T00:43:54.122Z,43.43
2022-12-20T00:46:23.343Z,46.00
2022-12-20T00:48:51.654Z,43.40
2022-12-20T00:51:21.801Z,44.50
2022-12-20T00:53:49.897Z,43.50
2022-12-20T00:56:17.578Z,45.83
2022-12-20T00:58:47.012Z,46.30
2022-12-20T01:01:21.727Z,44.77
2022-12-20T01:03:50.080Z,45.07
2022-12-20T01:06:18.296Z,47.00
2022-12-20T01:08:46.161Z,45.33
2022-12-20T01:11:16.167Z,45.13
2022-12-20T01:13:47.198Z,45.53
2022-12-20T01:16:18.057Z,45.50
2022-12-20T01:18:46.203Z,46.47
2022-12-20T01:21:15.623Z,45.67
2022-12-20T01:23:43.852Z,42.97
2022-12-20T01:26:14.218Z,45.70
2022-12-20T01:28:43.321Z,43.87
2022-12-20T01:31:16.374Z,44.87
2022-12-20T01:33:44.687Z,44.17
2022-12-20T01:36:14.281Z,45.07
2022-12-20T01:38:42.413Z,45.60
2022-12-20T01:41:15.630Z,44.87
2022-12-20T01:43:51.162Z,44.87
2022-12-20T01:46:22.319Z,45.33
2022-12-20T01:48:53.652Z,46.30
2022-12-20T01:51:22.154Z,45.90
2022-12-20T01:53:56.323Z,45.13
2022-12-20T01:56:24.225Z,46.90
2022-12-20T01:58:54.196Z,46.87
2022-12-20T02:01:24.805Z,48.03
2022-12-20T02:03:55.127Z,49.33
2022-12-20T02:06:25.972Z,45.77
2022-12-20T02:08:56.606Z,46.17
2022-12-20T02:11:49.771Z,45.27
2022-12-20T02:14:32.937Z,44.67
2022-12-20T02:17:13.938Z,46.20
2022-12-20T02:20:06.535Z,44.77
2022-12-20T02:22:47.133Z,44.47
2022-12-20T02:25:43.956Z,46.30
2022-12-20T02:28:24.647Z,45.50
2022-12-20T02:30:58.138Z,44.43
2022-12-20T02:33:28.398Z,46.60
2022-12-20T02:35:56.112Z,45.17
2022-12-20T02:38:30.017Z,54.83
2022-12-20T02:41:03.290Z,47.03
2022-12-20T02:43:51.597Z,46.73
2022-12-20T02:46:22.537Z,46.63
2022-12-20T02:48:52.960Z,45.07
2022-12-20T02:51:24.395Z,45.20
2022-12-20T02:53:52.311Z,46.30
2022-12-20T02:56:28.830Z,46.27
2022-12-20T02:59:01.637Z,44.23
2022-12-20T03:01:33.499Z,43.83
2022-12-20T03:04:02.253Z,45.90
2022-12-20T03:06:30.698Z,44.43
2022-12-20T03:08:58.541Z,45.80
2022-12-20T03:11:26.266Z,45.47
2022-12-20T03:13:53.918Z,46.13
2022-12-20T03:16:21.677Z,46.47
2022-12-20T03:18:50.689Z,46.60
2022-12-20T03:21:18.322Z,45.77
2022-12-20T03:23:45.869Z,45.33
2022-12-20T03:26:13.483Z,45.57
2022-12-20T03:28:41.180Z,45.87
2022-12-20T03:31:09.052Z,46.37
2022-12-20T03:33:36.716Z,48.70
2022-12-20T03:36:06.265Z,47.00
2022-12-20T03:38:33.832Z,45.07
2022-12-20T03:41:01.412Z,48.43
2022-12-20T03:43:29.172Z,46.53
2022-12-20T03:45:56.789Z,44.07
2022-12-20T03:48:24.418Z,45.87
2022-12-20T03:50:52.047Z,46.03
2022-12-20T03:53:21.162Z,46.40
2022-12-20T03:55:48.732Z,46.70
2022-12-20T03:58:16.275Z,46.20
2022-12-20T04:00:44.215Z,46.80
2022-12-20T04:03:12.277Z,46.40
2022-12-20T04:05:40.410Z,46.83
2022-12-20T04:08:08.035Z,47.37
2022-12-20T04:10:57.239Z,47.83
2022-12-20T04:13:24.807Z,45.17
2022-12-20T04:15:58.269Z,48.87
2022-12-20T04:18:27.950Z,50.50
2022-12-20T04:20:56.223Z,50.03
2022-12-20T04:23:23.753Z,49.47
2022-12-20T04:25:52.662Z,48.20
2022-12-20T04:28:20.654Z,49.03
2022-12-20T04:30:48.270Z,48.83
2022-12-20T04:33:15.866Z,49.70
2022-12-20T04:35:44.197Z,51.27
2022-12-20T04:38:11.785Z,49.27
2022-12-20T04:40:39.683Z,45.40
2022-12-20T04:43:08.613Z,48.57
2022-12-20T04:45:36.425Z,47.10
2022-12-20T04:48:28.482Z,51.03
2022-12-20T04:50:52.725Z,47.67
2022-12-20T04:53:37.783Z,47.70
2022-12-20T04:56:05.801Z,49.23
2022-12-20T04:58:35.217Z,46.90
2022-12-20T05:01:02.771Z,47.90
2022-12-20T05:03:30.591Z,47.67
2022-12-20T05:05:58.576Z,48.03
2022-12-20T05:08:26.252Z,49.03
2022-12-20T05:10:53.829Z,48.57
2022-12-20T05:13:21.720Z,49.40
2022-12-20T05:15:54.516Z,48.97
2022-12-20T05:18:22.509Z,48.13
2022-12-20T05:21:11.399Z,51.23
2022-12-20T05:23:56.913Z,48.47
2022-12-20T05:26:25.857Z,47.40
2022-12-20T05:28:53.641Z,48.17
2022-12-20T05:31:22.941Z,47.67
2022-12-20T05:33:50.583Z,45.07
2022-12-20T05:36:18.181Z,46.97
2022-12-20T05:38:46.147Z,47.37
2022-12-20T05:41:13.723Z,45.40
2022-12-20T05:43:41.375Z,47.73
2022-12-20T05:46:09.154Z,47.23
2022-12-20T05:48:38.113Z,47.37
2022-12-20T05:51:05.907Z,46.43
2022-12-20T05:53:33.513Z,45.87
2022-12-20T05:56:02.319Z,49.43
2022-12-20T05:58:30.443Z,46.70
2022-12-20T06:00:58.071Z,47.43
2022-12-20T06:03:25.739Z,46.13
2022-12-20T06:05:54.856Z,45.50
2022-12-20T06:08:23.576Z,45.37
2022-12-20T06:10:51.431Z,46.10
2022-12-20T06:13:19.517Z,44.80
2022-12-20T06:15:47.818Z,45.97
2022-12-20T06:18:15.505Z,46.63
2022-12-20T06:20:43.155Z,45.53
2022-12-20T06:23:12.198Z,46.23
2022-12-20T06:25:39.775Z,44.10
2022-12-20T06:28:07.650Z,46.30
2022-12-20T06:30:36.014Z,46.47
2022-12-20T06:33:04.572Z,45.90
2022-12-20T06:35:32.215Z,46.87
2022-12-20T06:37:59.766Z,44.70
2022-12-20T06:40:28.704Z,45.43
2022-12-20T06:42:56.253Z,43.23
2022-12-20T06:45:23.841Z,45.13
2022-12-20T06:47:51.814Z,44.63
2022-12-20T06:50:19.540Z,45.07
2022-12-20T06:52:47.086Z,44.87
2022-12-20T06:55:14.785Z,44.23
2022-12-20T06:57:43.993Z,45.23
2022-12-20T07:00:13.463Z,43.87
2022-12-20T07:02:41.345Z,45.07
2022-12-20T07:05:09.438Z,45.07
2022-12-20T07:07:42.908Z,43.53
2022-12-20T07:10:12.683Z,42.90
2022-12-20T07:12:47.155Z,43.13
2022-12-20T07:15:17.483Z,43.40
2022-12-20T07:17:45.377Z,42.97
2022-12-20T07:20:14.435Z,43.63
2022-12-20T07:22:42.423Z,42.97
2022-12-20T07:25:11.564Z,42.97
2022-12-20T07:27:39.188Z,43.37
2022-12-20T07:30:08.124Z,42.87
2022-12-20T07:32:37.346Z,42.40
2022-12-20T07:35:05.157Z,43.00
2022-12-20T07:37:32.745Z,42.33
2022-12-20T07:40:00.390Z,42.17
2022-12-20T07:42:35.820Z,44.77
2022-12-20T07:45:06.223Z,45.00
2022-12-20T07:47:35.274Z,42.90
2022-12-20T07:50:04.664Z,43.77
2022-12-20T07:52:35.242Z,46.30
2022-12-20T07:55:06.804Z,44.60
2022-12-20T07:57:38.487Z,44.47
2022-12-20T08:00:07.404Z,44.40
2022-12-20T08:02:38.426Z,41.80
2022-12-20T08:05:09.646Z,43.33
2022-12-20T08:07:40.656Z,42.80
2022-12-20T08:10:12.595Z,42.13
2022-12-20T08:12:41.355Z,43.27
2022-12-20T08:15:10.164Z,41.93
2022-12-20T08:17:37.823Z,43.73
2022-12-20T08:20:09.591Z,43.33
2022-12-20T08:22:37.247Z,44.03
2022-12-20T08:25:05.166Z,42.83
2022-12-20T08:27:33.688Z,44.30
2022-12-20T08:30:01.298Z,45.13
2022-12-20T08:32:29.398Z,43.33
2022-12-20T08:34:57.021Z,42.13
2022-12-20T08:37:25.930Z,43.40
2022-12-20T08:39:53.559Z,44.00
2022-12-20T08:42:21.133Z,43.20
2022-12-20T08:44:48.717Z,44.47
2022-12-20T08:47:16.434Z,44.50
2022-12-20T08:49:47.642Z,43.27
2022-12-20T08:52:16.037Z,44.30
2022-12-20T08:54:44.959Z,43.23
2022-12-20T08:57:12.611Z,41.80
2022-12-20T08:59:40.637Z,45.60
2022-12-20T09:02:08.567Z,44.07
2022-12-20T09:04:36.427Z,43.47
2022-12-20T09:07:04.638Z,44.60
2022-12-20T09:09:32.361Z,44.87
2022-12-20T09:12:01.350Z,42.90
2022-12-20T09:14:29.321Z,42.97
2022-12-20T09:16:56.964Z,44.83
2022-12-20T09:19:24.583Z,44.67
2022-12-20T09:21:52.828Z,45.63
2022-12-20T09:24:20.393Z,47.17
2022-12-20T09:26:49.113Z,44.47
2022-12-20T09:29:26.948Z,45.00
2022-12-20T09:31:57.383Z,43.23
2022-12-20T09:34:25.163Z,43.63
2022-12-20T09:36:53.051Z,44.13
2022-12-20T09:39:20.865Z,43.23
2022-12-20T09:41:48.957Z,42.90
2022-12-20T09:44:24.888Z,43.60
2022-12-20T09:46:56.782Z,43.00
2022-12-20T09:49:29.481Z,44.83
2022-12-20T09:52:23.058Z,43.43
2022-12-20T09:54:57.815Z,42.13
2022-12-20T09:57:35.261Z,41.23
2022-12-20T10:00:12.827Z,42.00
2022-12-20T10:03:04.292Z,41.30
2022-12-20T10:05:41.190Z,40.70
2022-12-20T10:08:18.207Z,41.43
2022-12-20T10:10:57.738Z,41.00
2022-12-20T10:13:41.553Z,41.33
2022-12-20T10:16:21.368Z,41.73
2022-12-20T10:19:01.398Z,40.77
2022-12-20T10:21:42.053Z,40.77
2022-12-20T10:24:17.460Z,42.27
2022-12-20T10:26:45.509Z,41.37
2022-12-20T10:29:13.305Z,41.13
2022-12-20T10:31:42.838Z,40.67
2022-12-20T10:34:10.477Z,41.60
2022-12-20T10:36:38.784Z,39.40
2022-12-20T10:39:08.718Z,40.00
2022-12-20T10:41:51.718Z,40.73
2022-12-20T10:44:24.803Z,41.13
2022-12-20T10:46:55.953Z,38.27
2022-12-20T10:49:31.110Z,40.47
2022-12-20T10:52:01.597Z,39.20
2022-12-20T10:54:37.275Z,40.20
2022-12-20T10:57:18.957Z,38.17
2022-12-20T10:59:51.805Z,39.30
2022-12-20T11:02:38.809Z,38.17
2022-12-20T11:05:23.162Z,39.80
2022-12-20T11:08:33.027Z,39.00
2022-12-20T11:10:44.439Z,39.03
2022-12-20T11:13:21.996Z,39.10
2022-12-20T11:15:51.152Z,39.87
2022-12-20T11:18:29.709Z,37.77
2022-12-20T11:21:17.871Z,41.00
2022-12-20T11:23:56.963Z,40.13
2022-12-20T11:26:41.355Z,38.73
2022-12-20T11:29:23.657Z,38.93
2022-12-20T11:32:00.118Z,39.67
2022-12-20T11:34:39.948Z,40.27
2022-12-20T11:37:19.373Z,40.97
2022-12-20T11:40:05.240Z,41.13
2022-12-20T11:42:48.479Z,39.60
2022-12-20T11:45:25.177Z,41.90
2022-12-20T11:48:14.527Z,41.30
2022-12-20T11:51:02.591Z,41.97
2022-12-20T11:53:36.580Z,40.53
2022-12-20T11:56:10.014Z,41.37
2022-12-20T11:58:49.395Z,40.93
2022-12-20T12:01:20.945Z,41.93
2022-12-20T12:04:01.642Z,41.00
2022-12-20T12:06:34.784Z,40.03
2022-12-20T12:09:13.160Z,40.43
2022-12-20T12:14:39.448Z,40.17
2022-12-20T12:17:14.591Z,40.07
2022-12-20T12:19:47.788Z,40.43
2022-12-20T12:22:23.740Z,40.63
2022-12-20T12:24:58.191Z,40.77
2022-12-20T12:27:28.437Z,38.87
2022-12-20T12:29:58.777Z,39.57
2022-12-20T12:32:33.941Z,38.97
2022-12-20T12:35:14.844Z,38.50
2022-12-20T12:38:05.920Z,39.30
2022-12-20T12:40:58.835Z,40.00
2022-12-20T12:43:46.598Z,38.50
2022-12-20T12:46:17.228Z,37.30
2022-12-20T12:48:49.871Z,38.83
2022-12-20T12:51:25.971Z,36.87
2022-12-20T12:54:03.550Z,36.07
2022-12-20T12:56:45.101Z,37.60
2022-12-20T12:59:43.748Z,37.40
2022-12-20T13:02:26.395Z,37.37
2022-12-20T13:04:56.689Z,36.77
2022-12-20T13:07:31.990Z,36.77
2022-12-20T13:10:02.475Z,37.27
2022-12-20T13:12:58.711Z,37.10
2022-12-20T13:15:52.112Z,37.83
2022-12-20T13:18:25.028Z,37.40
2022-12-20T13:21:18.255Z,39.50
2022-12-20T13:23:45.896Z,38.27
2022-12-20T13:26:51.740Z,41.00
2022-12-20T13:29:26.133Z,38.20
2022-12-20T13:31:54.719Z,39.03
2022-12-20T13:34:53.429Z,39.63
2022-12-20T13:37:28.064Z,38.27
2022-12-20T13:39:56.511Z,38.63
2022-12-20T13:42:35.582Z,37.50
2022-12-20T13:45:05.054Z,36.50
2022-12-20T13:47:38.399Z,36.77
2022-12-20T13:50:25.334Z,37.90
2022-12-20T13:52:54.695Z,39.23
2022-12-20T13:55:33.692Z,38.70
2022-12-20T13:58:08.327Z,37.70
2022-12-20T14:00:36.207Z,37.60
2022-12-20T14:03:04.329Z,38.10
2022-12-20T14:05:38.196Z,37.93
2022-12-20T14:08:09.177Z,36.63
2022-12-20T14:10:37.445Z,37.50
2022-12-20T14:13:22.134Z,37.47
2022-12-20T14:15:50.507Z,36.87
2022-12-20T14:18:20.919Z,37.50
2022-12-20T14:20:51.544Z,38.80
2022-12-20T14:23:21.826Z,37.67
2022-12-20T14:25:53.425Z,38.57
2022-12-20T14:28:32.038Z,39.10
2022-12-20T14:31:01.834Z,39.23
2022-12-20T14:33:36.291Z,37.90
2022-12-20T14:36:17.493Z,38.47
2022-12-20T14:38:47.323Z,38.57
2022-12-20T14:41:35.983Z,39.93
2022-12-20T14:44:16.608Z,37.90
2022-12-20T14:46:49.764Z,38.97
2022-12-20T14:49:26.032Z,39.17
2022-12-20T14:52:06.525Z,38.83
2022-12-20T14:57:25.758Z,38.67
2022-12-20T15:00:11.680Z,40.23
2022-12-20T15:02:42.277Z,40.27
2022-12-20T15:05:53.301Z,40.43
2022-12-20T15:08:24.817Z,38.50
2022-12-20T15:10:58.469Z,40.07
2022-12-20T15:13:29.975Z,39.77
2022-12-20T15:16:01.886Z,40.40
2022-12-20T15:18:29.663Z,41.03
2022-12-20T15:21:04.634Z,42.90
2022-12-20T15:23:32.582Z,43.67
2022-12-20T15:26:00.193Z,43.03
2022-12-20T15:28:28.166Z,43.37
2022-12-20T15:30:56.344Z,43.87
2022-12-20T15:33:27.107Z,43.67
2022-12-20T15:35:55.132Z,44.90
2022-12-20T15:38:40.979Z,44.03
2022-12-20T15:41:18.190Z,47.20
2022-12-20T15:43:45.978Z,46.33
2022-12-20T15:46:14.178Z,48.37
2022-12-20T15:48:43.094Z,45.23
2022-12-20T15:51:17.376Z,48.70
2022-12-20T15:53:44.985Z,47.70
2022-12-20T15:56:19.238Z,48.13
2022-12-20T15:58:47.342Z,47.87
2022-12-20T16:01:19.098Z,47.63
2022-12-20T16:03:48.165Z,47.17
2022-12-20T16:06:15.762Z,49.87
2022-12-20T16:08:43.630Z,47.50
2022-12-20T16:11:22.248Z,47.80
2022-12-20T16:13:50.342Z,47.77
2022-12-20T16:16:19.006Z,48.37
2022-12-20T16:18:48.185Z,47.17
2022-12-20T16:21:18.696Z,50.00
2022-12-20T16:23:46.441Z,49.63
2022-12-20T16:26:16.068Z,48.30
2022-12-20T16:28:44.250Z,48.30
2022-12-20T16:31:18.801Z,48.17
2022-12-20T16:33:47.767Z,49.30
2022-12-20T16:36:15.503Z,48.50
2022-12-20T16:38:43.267Z,50.17
2022-12-20T16:41:13.866Z,50.40
2022-12-20T16:43:42.029Z,51.57
2022-12-20T16:46:12.816Z,52.13
2022-12-20T16:48:41.634Z,51.00
2022-12-20T16:51:24.686Z,50.83
2022-12-20T16:54:17.967Z,49.00
2022-12-20T16:56:40.797Z,49.30
2022-12-20T16:59:18.951Z,50.80
2022-12-20T17:01:48.925Z,51.20
2022-12-20T17:04:18.644Z,49.90
2022-12-20T17:06:48.588Z,51.97
2022-12-20T17:09:16.923Z,54.57
2022-12-20T17:11:52.988Z,53.33
2022-12-20T17:14:20.660Z,54.57
2022-12-20T17:16:48.290Z,57.43
2022-12-20T17:19:16.440Z,54.97
2022-12-20T17:24:34.263Z,57.83
2022-12-20T17:27:01.828Z,57.90
2022-12-20T17:29:29.394Z,56.33
2022-12-20T17:31:57.352Z,57.30
2022-12-20T17:34:27.097Z,56.97
2022-12-20T17:36:56.502Z,58.83
2022-12-20T17:39:25.086Z,56.90
2022-12-20T17:41:56.262Z,56.70
2022-12-20T17:44:25.659Z,56.30
2022-12-20T17:46:53.885Z,57.50
2022-12-20T17:49:23.009Z,56.13
2022-12-20T17:51:51.871Z,59.00
2022-12-20T17:54:22.207Z,55.10
2022-12-20T17:56:50.727Z,56.97
2022-12-20T17:59:19.785Z,56.63
2022-12-20T18:01:48.109Z,56.80
2022-12-20T18:04:17.343Z,55.30
2022-12-20T18:06:46.184Z,54.57
2022-12-20T18:09:15.482Z,53.53
2022-12-20T18:11:43.500Z,55.33
2022-12-20T18:14:11.550Z,54.27
2022-12-20T18:16:40.601Z,52.23
2022-12-20T18:19:09.381Z,54.23
2022-12-20T18:21:36.976Z,55.37
2022-12-20T18:24:04.857Z,52.13
2022-12-20T18:26:34.924Z,52.30
2022-12-20T18:29:03.643Z,52.70
2022-12-20T18:31:33.849Z,52.93
2022-12-20T18:34:03.353Z,55.10
2022-12-20T18:36:34.461Z,54.43
2022-12-20T18:39:03.477Z,55.00
2022-12-20T18:41:32.465Z,53.00
2022-12-20T18:44:02.342Z,53.73
2022-12-20T18:46:30.698Z,55.30
2022-12-20T18:49:00.237Z,56.50
2022-12-20T18:51:31.455Z,56.80
2022-12-20T18:54:00.694Z,63.07
2022-12-20T18:56:30.820Z,59.43
2022-12-20T18:59:02.978Z,72.63
2022-12-20T19:01:36.767Z,69.67
2022-12-20T19:04:06.494Z,60.70
2022-12-20T19:06:36.206Z,70.17
2022-12-20T19:09:05.293Z,60.10
2022-12-20T19:11:33.572Z,69.40
2022-12-20T19:14:01.364Z,67.43
2022-12-20T19:16:32.130Z,70.90
2022-12-20T19:19:00.614Z,63.10
2022-12-20T19:21:29.997Z,64.73
2022-12-20T19:24:01.234Z,62.53
2022-12-20T19:26:29.759Z,62.10
2022-12-20T19:28:57.925Z,61.33
2022-12-20T19:31:27.566Z,55.50
2022-12-20T19:33:56.728Z,57.40
2022-12-20T19:36:26.667Z,55.30
2022-12-20T19:38:57.003Z,60.27
2022-12-20T19:41:27.907Z,65.43
2022-12-20T19:43:56.596Z,53.20
2022-12-20T19:46:29.384Z,51.90
2022-12-20T19:48:59.296Z,51.40
2022-12-20T19:51:28.220Z,51.40
2022-12-20T19:53:57.232Z,51.33
2022-12-20T19:56:27.907Z,50.43
2022-12-20T19:58:56.295Z,56.10
2022-12-20T20:01:27.411Z,47.40
2022-12-20T20:03:57.063Z,52.67
2022-12-20T20:06:25.130Z,48.97
2022-12-20T20:08:52.790Z,51.00
2022-12-20T20:11:21.243Z,49.50
2022-12-20T20:13:50.203Z,51.70
2022-12-20T20:16:22.212Z,47.67
2022-12-20T20:18:51.453Z,47.47
2022-12-20T20:21:22.402Z,47.87
2022-12-20T20:23:50.783Z,49.57
2022-12-20T20:26:20.514Z,47.63
2022-12-20T20:28:48.189Z,48.63
2022-12-20T20:31:18.273Z,52.23
2022-12-20T20:33:46.258Z,56.07
2022-12-20T20:36:14.927Z,53.83
2022-12-20T20:38:42.879Z,59.53
2022-12-20T20:41:11.099Z,63.53
2022-12-20T20:43:39.094Z,57.07
2022-12-20T20:46:08.525Z,60.63
2022-12-20T20:48:38.342Z,54.37
2022-12-20T20:51:07.024Z,57.23
2022-12-20T20:53:35.244Z,65.27
2022-12-20T20:56:03.647Z,65.07
2022-12-20T20:58:32.168Z,71.00
2022-12-20T21:01:01.056Z,54.80
2022-12-20T21:03:29.812Z,77.17
2022-12-20T21:06:35.082Z,65.17
2022-12-20T21:08:47.226Z,68.63
2022-12-20T21:11:15.524Z,58.20
2022-12-20T21:13:43.200Z,66.50
2022-12-20T21:16:12.745Z,59.07
2022-12-20T21:18:40.747Z,63.20
2022-12-20T21:21:11.398Z,69.10
2022-12-20T21:23:39.282Z,86.77
2022-12-20T21:26:08.443Z,90.87
2022-12-20T21:28:36.399Z,107.10
2022-12-20T21:31:06.992Z,79.47
2022-12-20T21:33:34.584Z,101.87
2022-12-20T21:36:03.329Z,78.27
2022-12-20T21:38:32.370Z,65.57
2022-12-20T21:41:01.495Z,74.03
2022-12-20T21:43:29.924Z,72.27
2022-12-20T21:45:57.852Z,74.53
2022-12-20T21:48:26.947Z,69.10
2022-12-20T21:51:01.896Z,78.57
2022-12-20T21:53:30.412Z,75.20
2022-12-20T21:56:01.457Z,77.73
2022-12-20T21:58:30.853Z,59.40
2022-12-20T22:00:58.871Z,60.47
2022-12-20T22:03:27.424Z,69.93
2022-12-20T22:05:56.605Z,70.67
2022-12-20T22:08:26.372Z,69.00
2022-12-20T22:11:00.967Z,58.10
2022-12-20T22:13:29.023Z,60.20
2022-12-20T22:15:57.020Z,86.27
2022-12-20T22:18:25.305Z,57.73
2022-12-20T22:20:52.912Z,70.83
2022-12-20T22:23:20.484Z,85.37
2022-12-20T22:25:48.120Z,73.63
2022-12-20T22:28:17.077Z,67.63
2022-12-20T22:30:44.976Z,78.23
2022-12-20T22:33:12.603Z,105.37
2022-12-20T22:35:41.063Z,62.93
2022-12-20T22:38:08.631Z,61.97
2022-12-20T22:40:36.484Z,88.50
2022-12-20T22:43:04.070Z,63.60
2022-12-20T22:45:32.977Z,61.07
2022-12-20T22:48:00.770Z,98.17
2022-12-20T22:50:28.381Z,85.47
2022-12-20T22:52:55.947Z,89.73
2022-12-20T22:55:23.486Z,80.40
2022-12-20T22:57:51.042Z,63.37
2022-12-20T23:00:18.862Z,86.07
2022-12-20T23:02:47.920Z,89.37
2022-12-20T23:05:15.551Z,93.07
2022-12-20T23:07:43.127Z,70.67
2022-12-20T23:10:31.596Z,77.13
2022-12-20T23:13:16.863Z,109.50
2022-12-20T23:15:44.763Z,84.37
2022-12-20T23:18:13.695Z,57.90
2022-12-20T23:20:59.111Z,155.03
2022-12-20T23:23:26.667Z,127.10
2022-12-20T23:25:54.222Z,96.13
2022-12-20T23:28:21.856Z,106.63
2022-12-20T23:30:49.544Z,106.57
2022-12-20T23:33:18.475Z,109.23
2022-12-20T23:35:46.031Z,170.50
2022-12-20T23:38:13.982Z,113.37
2022-12-20T23:40:41.743Z,105.07
2022-12-20T23:43:09.360Z,89.83
2022-12-20T23:45:36.947Z,109.93
2022-12-20T23:48:05.016Z,114.20
2022-12-20T23:50:34.031Z,90.93
2022-12-20T23:53:01.941Z,77.33
2022-12-20T23:55:29.499Z,115.37
2022-12-20T23:57:57.098Z,88.10
